Dallas, Texas
Current Conditions -  °F | °C
As of 4:53 PM on Tuesday 25 Nov 2014 (Local Time) from KDAL Reporting Station
Clear Clear  
Wind Chill: 16°   Ceiling: Unl
Heat Index: 16°   Visibility: 10mi
Dew Point: -2°   Wind: 9mph
Humidity: 29%   Direction: 270°W
Pressure: 30.16"   Gusts: NA
Location:  32.78°N, 96.79°W
Report Text: KDAL 252253Z 27008KT 10SM CLR 16/M02 A3016 RMK AO2 SLP212 T01611022
Loading
Personal Weather Stations






























Interactive Weather Map New forecast layout! Learn more

10-Day Weather Forecast

Advertisements
Track Severe Weather on mobile